Time;durP1;ratioP1;P1;durP2;ratioP2;P2;SDS_P1;SDS_P2;PMS_P1;PMS_P2;Temp;Humidity;BMP_temperature;BMP_pressure;BME280_temperature;BME280_humidity;BME280_pressure;Samples;Min_cycle;Max_cycle;Signal;HPM_P1;HPM_P2
2021/05/14 00:01:37;;;;;;;4.72;2.92;;;;;;;13.20;84.01;96523.50;1676568;85;20982;-69
2021/05/14 00:04:03;;;;;;;3.17;2.33;;;;;;;13.18;83.61;96521.09;1676561;85;21006;-68
2021/05/14 00:06:29;;;;;;;4.17;2.65;;;;;;;13.14;83.65;96525.59;1676539;85;21038;-69
2021/05/14 00:08:55;;;;;;;4.85;2.40;;;;;;;13.13;83.47;96521.84;1676648;85;21105;-69
2021/05/14 00:11:21;;;;;;;5.00;2.77;;;;;;;13.12;83.41;96527.05;1676513;85;20989;-68
2021/05/14 00:13:47;;;;;;;4.85;2.60;;;;;;;13.12;83.40;96520.25;1676428;85;20907;-68
2021/05/14 00:16:13;;;;;;;4.20;2.33;;;;;;;13.15;83.43;96530.45;1676573;85;20977;-69
2021/05/14 00:18:39;;;;;;;4.97;2.52;;;;;;;13.16;83.37;96521.99;1676524;85;20965;-69
2021/05/14 00:21:05;;;;;;;3.58;2.98;;;;;;;13.18;83.31;96524.38;1676658;85;21135;-69
2021/05/14 00:23:31;;;;;;;5.33;2.12;;;;;;;13.19;83.24;96525.96;1676495;85;20899;-69
2021/05/14 00:25:57;;;;;;;5.45;2.92;;;;;;;13.19;83.68;96524.60;1652825;85;21045;-69
2021/05/14 00:28:23;;;;;;;4.87;2.80;;;;;;;13.18;83.46;96524.38;1676558;85;20914;-69
2021/05/14 00:30:49;;;;;;;4.42;3.17;;;;;;;13.18;83.39;96520.30;1676584;85;20998;-69
2021/05/14 00:33:15;;;;;;;5.40;2.80;;;;;;;13.17;84.19;96518.70;1676555;85;21274;-69
2021/05/14 00:35:41;;;;;;;4.65;2.98;;;;;;;13.12;83.99;96530.56;1676494;85;21042;-69
2021/05/14 00:38:07;;;;;;;5.03;3.75;;;;;;;13.13;84.33;96524.00;1676450;85;21001;-69
2021/05/14 00:40:32;;;;;;;3.47;2.85;;;;;;;13.09;84.40;96525.01;1676642;85;21014;-69
2021/05/14 00:42:58;;;;;;;3.72;2.60;;;;;;;13.04;84.43;96525.98;1676481;85;21006;-69
2021/05/14 00:45:24;;;;;;;5.05;3.10;;;;;;;13.03;84.03;96527.69;1676543;85;21279;-69
2021/05/14 00:47:50;;;;;;;2.62;2.42;;;;;;;13.03;84.28;96527.13;1676504;85;21004;-69
2021/05/14 00:50:16;;;;;;;5.62;3.72;;;;;;;13.00;83.93;96529.16;1676494;85;20931;-69
2021/05/14 00:52:42;;;;;;;5.33;3.25;;;;;;;13.02;83.90;96526.89;1676425;85;21014;-69
2021/05/14 00:55:09;;;;;;;5.05;3.10;;;;;;;13.07;84.11;96525.88;1676588;85;20930;-70
2021/05/14 00:57:36;;;;;;;5.28;3.40;;;;;;;12.98;84.19;96522.66;1676347;85;20986;-69
2021/05/14 01:00:03;;;;;;;6.75;3.55;;;;;;;12.93;84.62;96525.59;1676453;85;21500;-69
2021/05/14 01:02:29;;;;;;;4.95;3.45;;;;;;;12.90;85.03;96522.72;1676464;85;20990;-69
2021/05/14 01:04:56;;;;;;;6.28;3.20;;;;;;;12.85;85.06;96517.50;1676647;85;20883;-69
2021/05/14 01:07:21;;;;;;;9.15;4.15;;;;;;;12.85;84.93;96521.58;1676386;85;20883;-69
2021/05/14 01:09:48;;;;;;;5.80;3.65;;;;;;;12.87;85.19;96519.31;1676637;85;21311;-69
2021/05/14 01:12:14;;;;;;;4.58;3.40;;;;;;;12.85;85.30;96518.86;1676113;85;21128;-69
2021/05/14 01:14:40;;;;;;;3.42;2.83;;;;;;;12.84;84.92;96516.70;1676670;85;20918;-69
2021/05/14 01:17:06;;;;;;;5.03;2.80;;;;;;;12.86;85.40;96519.88;1676487;85;21010;-69
2021/05/14 01:19:32;;;;;;;5.03;3.00;;;;;;;12.78;85.35;96519.94;1676561;85;20994;-69
2021/05/14 01:21:58;;;;;;;4.78;2.75;;;;;;;12.73;85.57;96524.20;1676596;85;21243;-69
2021/05/14 01:24:24;;;;;;;4.20;2.30;;;;;;;12.67;85.83;96516.25;1676453;85;21525;-69
2021/05/14 01:26:50;;;;;;;3.47;2.15;;;;;;;12.66;85.77;96523.38;1676412;85;20902;-69
2021/05/14 01:29:15;;;;;;;4.37;2.55;;;;;;;12.65;87.49;96521.79;1676434;85;20887;-69
2021/05/14 01:31:41;;;;;;;3.95;1.82;;;;;;;12.70;86.67;96519.66;1676550;85;20949;-69
2021/05/14 01:34:08;;;;;;;4.05;2.30;;;;;;;12.74;86.11;96521.73;1676399;85;21127;-69
2021/05/14 01:36:37;;;;;;;5.10;2.22;;;;;;;12.71;85.87;96514.45;1676277;85;21066;-69
2021/05/14 01:39:10;;;;;;;4.05;2.22;;;;;;;12.80;86.32;96513.60;1676196;85;21473;-69
2021/05/14 01:41:36;;;;;;;2.95;2.17;;;;;;;12.85;85.95;96510.14;1676400;85;21490;-68
2021/05/14 01:44:03;;;;;;;3.08;2.10;;;;;;;12.87;85.68;96509.23;1676400;85;20942;-68
2021/05/14 01:46:30;;;;;;;7.50;2.58;;;;;;;12.87;85.57;96505.72;1676388;85;21474;-69
2021/05/14 01:48:56;;;;;;;3.30;2.35;;;;;;;12.84;85.42;96509.11;1676433;85;20974;-69
2021/05/14 01:51:22;;;;;;;3.45;2.00;;;;;;;12.87;85.41;96505.16;1676493;85;20883;-68
2021/05/14 01:53:49;;;;;;;3.65;2.37;;;;;;;12.93;85.25;96504.41;1676396;85;21550;-68
2021/05/14 01:56:15;;;;;;;4.75;2.15;;;;;;;12.98;85.01;96508.27;1676611;85;21058;-69
2021/05/14 01:58:41;;;;;;;3.17;2.00;;;;;;;12.97;84.80;96512.13;1676404;85;21115;-68
2021/05/14 02:01:07;;;;;;;2.40;1.75;;;;;;;12.98;84.79;96511.78;1676474;85;21078;-69
2021/05/14 02:03:33;;;;;;;3.90;2.58;;;;;;;13.02;84.75;96515.22;1675051;85;20970;-69
2021/05/14 02:05:59;;;;;;;3.27;2.30;;;;;;;13.04;84.74;96512.96;1672700;85;21077;-69
2021/05/14 02:08:25;;;;;;;3.35;2.33;;;;;;;13.08;84.82;96511.98;1672515;85;20921;-68
2021/05/14 02:10:51;;;;;;;3.70;2.25;;;;;;;13.12;84.62;96512.09;1672599;85;21852;-68
2021/05/14 02:13:17;;;;;;;4.33;1.62;;;;;;;13.14;84.49;96516.63;1672548;85;20967;-68
2021/05/14 02:15:43;;;;;;;3.85;2.33;;;;;;;13.18;84.41;96515.65;1672600;85;21010;-69
2021/05/14 02:18:08;;;;;;;4.60;2.17;;;;;;;13.22;84.26;96522.03;1672586;85;20898;-68
2021/05/14 02:20:34;;;;;;;2.87;2.02;;;;;;;13.25;84.23;96514.59;1672606;85;21109;-69
2021/05/14 02:23:00;;;;;;;2.70;2.12;;;;;;;13.15;84.06;96518.22;1672573;85;21795;-68
2021/05/14 02:25:26;;;;;;;4.17;2.27;;;;;;;13.02;84.05;96519.30;1672691;85;20915;-69
2021/05/14 02:27:52;;;;;;;3.12;2.35;;;;;;;12.90;84.06;96522.19;1672541;85;20922;-68
2021/05/14 02:30:19;;;;;;;3.20;2.30;;;;;;;12.88;84.27;96518.19;1672640;85;20990;-69
2021/05/14 02:32:45;;;;;;;4.28;2.20;;;;;;;12.87;84.21;96514.67;1672481;85;20974;-68
2021/05/14 02:35:13;;;;;;;4.05;2.20;;;;;;;12.89;84.63;96522.49;1645194;85;21296;-68
2021/05/14 02:37:39;;;;;;;4.45;2.20;;;;;;;12.86;84.56;96525.31;1672430;85;21524;-69
2021/05/14 02:40:06;;;;;;;3.37;2.72;;;;;;;12.84;84.58;96526.22;1672475;85;21612;-69
2021/05/14 02:42:32;;;;;;;3.22;2.72;;;;;;;12.83;84.67;96521.91;1672546;85;20970;-68
2021/05/14 02:44:58;;;;;;;3.15;2.20;;;;;;;12.88;85.00;96523.63;1672631;85;21504;-69
2021/05/14 02:47:24;;;;;;;4.85;2.30;;;;;;;12.92;84.79;96526.72;1672558;85;21174;-68
2021/05/14 02:49:49;;;;;;;4.03;2.20;;;;;;;12.97;84.61;96526.52;1672644;85;20927;-69
2021/05/14 02:52:15;;;;;;;3.15;2.10;;;;;;;12.97;84.66;96524.36;1672600;85;20902;-68
2021/05/14 02:54:41;;;;;;;2.40;1.82;;;;;;;12.95;84.99;96523.33;1645507;85;20899;-68
2021/05/14 02:57:07;;;;;;;4.72;2.50;;;;;;;12.88;84.81;96523.63;1672635;85;20969;-68
2021/05/14 02:59:33;;;;;;;4.03;2.60;;;;;;;12.85;84.84;96530.53;1672601;85;21078;-68
2021/05/14 03:01:59;;;;;;;6.42;3.17;;;;;;;12.88;84.87;96526.34;1672427;85;21046;-68
2021/05/14 03:04:25;;;;;;;5.25;2.67;;;;;;;12.89;84.96;96531.44;1674774;85;21003;-68
2021/05/14 03:06:51;;;;;;;4.30;2.77;;;;;;;12.89;84.65;96538.80;1676628;85;20947;-68
2021/05/14 03:09:17;;;;;;;4.10;3.15;;;;;;;12.90;84.84;96531.70;1676713;85;20918;-68
2021/05/14 03:11:43;;;;;;;4.33;2.60;;;;;;;12.88;86.11;96542.66;1676699;85;21155;-68
2021/05/14 03:14:09;;;;;;;2.12;1.82;;;;;;;12.86;84.99;96540.27;1676417;85;21595;-68
2021/05/14 03:16:35;;;;;;;5.97;2.70;;;;;;;12.84;85.94;96542.53;1676501;85;20914;-68
2021/05/14 03:19:01;;;;;;;6.40;2.47;;;;;;;12.79;86.69;96544.62;1676487;85;21426;-68
2021/05/14 03:21:30;;;;;;;3.10;2.22;;;;;;;12.80;85.96;96542.14;1676653;85;21055;-68
2021/05/14 03:23:55;;;;;;;6.17;2.87;;;;;;;12.80;86.39;96545.66;1676739;85;21391;-69
2021/05/14 03:26:21;;;;;;;3.17;2.08;;;;;;;12.84;85.84;96547.97;1676525;85;20983;-69
2021/05/14 03:28:47;;;;;;;3.08;2.02;;;;;;;12.93;85.68;96549.27;1676679;85;20930;-69
2021/05/14 03:31:13;;;;;;;3.45;2.87;;;;;;;13.02;85.71;96547.84;1676706;85;20911;-71
2021/05/14 03:33:39;;;;;;;3.83;2.85;;;;;;;13.06;85.74;96552.28;1676558;85;20890;-69
2021/05/14 03:36:05;;;;;;;4.92;3.55;;;;;;;13.08;85.50;96551.97;1676686;85;21075;-69
2021/05/14 03:38:33;;;;;;;5.33;4.17;;;;;;;13.09;85.51;96558.44;1652889;85;20930;-69
2021/05/14 03:41:02;;;;;;;30.50;4.83;;;;;;;13.13;85.31;96564.00;1676746;85;20958;-68
2021/05/14 03:43:29;;;;;;;6.92;3.80;;;;;;;13.15;85.17;96559.02;1676560;85;21031;-69
2021/05/14 03:45:55;;;;;;;4.53;3.55;;;;;;;13.15;84.89;96566.61;1676485;85;21030;-69
2021/05/14 03:48:21;;;;;;;5.25;3.55;;;;;;;13.18;84.67;96571.97;1676524;85;21204;-69
2021/05/14 03:50:50;;;;;;;7.25;5.10;;;;;;;13.15;84.54;96572.61;1676567;85;21516;-69
2021/05/14 03:53:20;;;;;;;8.48;4.62;;;;;;;13.17;84.51;96570.38;1676543;85;20956;-69
2021/05/14 03:55:46;;;;;;;5.30;3.67;;;;;;;13.19;84.53;96571.66;1676468;85;21058;-68
2021/05/14 03:58:12;;;;;;;4.92;3.58;;;;;;;13.23;84.55;96575.87;1676532;85;20934;-68
2021/05/14 04:00:37;;;;;;;6.97;3.80;;;;;;;13.28;84.50;96577.04;1676710;85;21164;-68
2021/05/14 04:03:04;;;;;;;6.30;3.98;;;;;;;13.30;84.32;96581.58;1676506;85;20941;-68
2021/05/14 04:05:30;;;;;;;6.87;4.25;;;;;;;13.28;84.43;96583.05;1673083;85;21010;-69
2021/05/14 04:07:56;;;;;;;5.12;4.05;;;;;;;13.30;84.30;96583.50;1672602;85;20942;-68
2021/05/14 04:15:41;;;;;;;6.55;4.55;;;;;;;13.36;83.97;96589.78;1624011;85;21466;-70
2021/05/14 04:18:07;;;;;;;7.25;4.05;;;;;;;13.34;84.11;96591.25;1672715;85;20930;-70
2021/05/14 04:20:33;;;;;;;7.47;4.40;;;;;;;13.30;83.99;96587.58;1672752;85;20978;-70
2021/05/14 04:22:58;;;;;;;6.37;4.20;;;;;;;13.24;84.16;96585.08;1672669;85;20930;-70
2021/05/14 04:25:25;;;;;;;7.67;4.92;;;;;;;13.21;84.06;96589.80;1672515;85;21047;-70
2021/05/14 04:27:51;;;;;;;4.80;3.65;;;;;;;13.21;84.07;96593.09;1672577;85;21446;-70
2021/05/14 04:30:18;;;;;;;5.87;3.30;;;;;;;13.19;84.48;96592.06;1672605;85;20922;-70
2021/05/14 04:32:43;;;;;;;7.97;4.33;;;;;;;13.21;84.27;96589.00;1672756;85;20974;-69
2021/05/14 04:35:10;;;;;;;5.75;3.50;;;;;;;13.23;84.11;96594.34;1672565;85;21057;-70
2021/05/14 04:37:36;;;;;;;4.20;3.62;;;;;;;13.22;83.99;96591.39;1672752;85;21111;-70
2021/05/14 04:40:04;;;;;;;5.90;3.87;;;;;;;13.20;84.24;96599.09;1672505;85;20962;-67
2021/05/14 04:42:30;;;;;;;9.38;5.83;;;;;;;13.16;84.67;96594.59;1672537;85;21505;-67
2021/05/14 04:44:56;;;;;;;10.58;5.87;;;;;;;13.13;84.26;96596.06;1672680;85;20879;-67
2021/05/14 04:47:22;;;;;;;5.83;4.62;;;;;;;13.12;84.41;96603.20;1672661;85;20962;-67
2021/05/14 04:49:47;;;;;;;9.23;5.97;;;;;;;13.14;84.26;96602.30;1672662;85;20954;-67
2021/05/14 04:52:18;;;;;;;8.98;5.67;;;;;;;13.13;84.23;96604.22;1672692;85;20872;-67
2021/05/14 04:54:46;;;;;;;7.50;5.83;;;;;;;13.15;84.11;96605.25;1672730;85;20995;-69
2021/05/14 04:57:13;;;;;;;8.10;6.20;;;;;;;13.12;83.93;96604.00;1672604;85;21011;-69
2021/05/14 04:59:40;;;;;;;7.47;5.10;;;;;;;13.14;83.79;96608.53;1672565;85;21485;-69
2021/05/14 05:02:07;;;;;;;9.78;6.10;;;;;;;13.10;83.72;96610.33;1672507;85;21205;-69
2021/05/14 05:04:36;;;;;;;13.10;7.90;;;;;;;13.10;83.65;96607.61;1673246;85;20978;-69
2021/05/14 05:07:08;;;;;;;9.08;6.80;;;;;;;13.09;83.58;96610.67;1651376;85;21403;-69
2021/05/14 05:09:36;;;;;;;11.65;7.17;;;;;;;13.06;83.52;96609.38;1674986;85;21457;-70
2021/05/14 05:12:02;;;;;;;11.20;6.80;;;;;;;13.05;83.51;96611.08;1674363;85;20968;-70
2021/05/14 05:14:28;;;;;;;9.75;6.97;;;;;;;13.05;83.51;96615.95;1674981;85;21802;-69
2021/05/14 05:16:54;;;;;;;9.88;7.67;;;;;;;13.09;83.52;96621.55;1674989;85;20959;-70
2021/05/14 05:19:21;;;;;;;10.70;7.08;;;;;;;13.12;83.47;96617.59;1675135;85;20966;-70
2021/05/14 05:21:47;;;;;;;11.68;7.22;;;;;;;13.16;83.51;96619.08;1674981;85;21474;-70
2021/05/14 05:24:13;;;;;;;12.88;7.92;;;;;;;13.19;83.44;96619.80;1675060;85;21007;-70
2021/05/14 05:26:39;;;;;;;8.75;6.95;;;;;;;13.23;83.41;96623.47;1675188;85;21259;-69
2021/05/14 05:29:05;;;;;;;11.60;8.90;;;;;;;13.26;83.35;96623.62;1674934;85;20891;-70
2021/05/14 05:31:31;;;;;;;10.20;7.83;;;;;;;13.22;83.31;96626.75;1674955;85;20943;-69
2021/05/14 05:33:57;;;;;;;10.18;7.58;;;;;;;13.25;83.23;96623.95;1674941;85;20978;-69
2021/05/14 05:36:23;;;;;;;40.50;29.57;;;;;;;13.30;82.95;96631.11;1675074;85;20898;-69
2021/05/14 05:38:50;;;;;;;24.65;17.98;;;;;;;13.23;82.96;96625.63;1675160;85;21195;-69
2021/05/14 05:41:17;;;;;;;39.98;22.15;;;;;;;13.28;82.91;96634.73;1674997;85;21033;-70
2021/05/14 05:43:45;;;;;;;14.00;6.72;;;;;;;13.22;82.93;96634.91;1674898;85;20946;-69
2021/05/14 05:46:11;;;;;;;8.08;3.15;;;;;;;13.10;82.91;96638.89;1674323;85;21030;-70
2021/05/14 05:48:37;;;;;;;4.03;1.77;;;;;;;13.11;82.88;96641.84;1674945;85;21089;-69
2021/05/14 05:51:06;;;;;;;5.45;4.95;;;;;;;13.10;82.85;96644.33;1675121;85;21170;-70
2021/05/14 05:53:32;;;;;;;4.65;3.10;;;;;;;13.04;82.72;96648.91;1675072;85;21411;-69
2021/05/14 05:55:58;;;;;;;1.45;1.02;;;;;;;13.03;82.90;96651.41;1675069;85;21026;-69
2021/05/14 05:58:24;;;;;;;3.40;1.32;;;;;;;13.07;82.83;96648.25;1675170;85;20883;-69
2021/05/14 06:00:50;;;;;;;1.85;1.55;;;;;;;13.14;82.65;96653.97;1675073;85;20922;-69
2021/05/14 06:03:16;;;;;;;3.45;1.37;;;;;;;13.08;82.52;96660.75;1675087;85;21872;-69
2021/05/14 06:05:42;;;;;;;1.82;1.40;;;;;;;13.05;82.37;96657.30;1674976;85;20966;-69
2021/05/14 06:08:08;;;;;;;1.95;1.10;;;;;;;13.01;82.48;96665.90;1675176;85;20954;-69
2021/05/14 06:10:34;;;;;;;1.40;0.80;;;;;;;12.97;82.37;96661.66;1675030;85;21007;-69
2021/05/14 06:13:00;;;;;;;1.40;0.93;;;;;;;12.96;82.45;96676.38;1675077;85;21054;-69
2021/05/14 06:15:26;;;;;;;2.58;2.25;;;;;;;12.95;82.38;96674.79;1675028;85;21269;-70
2021/05/14 06:17:52;;;;;;;2.27;1.50;;;;;;;12.94;82.33;96680.00;1675099;85;20894;-69
2021/05/14 06:20:25;;;;;;;4.33;3.92;;;;;;;12.95;82.38;96681.02;1674918;85;20982;-69
2021/05/14 06:22:46;;;;;;;3.60;3.17;;;;;;;12.91;82.25;96684.17;1673471;85;21533;-69
2021/05/14 06:25:13;;;;;;;3.37;3.08;;;;;;;12.93;82.28;96688.72;1675153;85;20914;-69
2021/05/14 06:27:38;;;;;;;7.42;6.85;;;;;;;12.97;82.17;96688.28;1675100;85;21218;-69
2021/05/14 06:30:06;;;;;;;4.15;3.83;;;;;;;13.02;82.25;96692.75;1674991;85;22045;-69
2021/05/14 06:32:33;;;;;;;4.45;4.05;;;;;;;13.13;82.26;96685.81;1674936;85;21443;-69
2021/05/14 06:34:59;;;;;;;3.75;2.75;;;;;;;13.18;81.88;96693.00;1675004;85;20942;-69
2021/05/14 06:37:25;;;;;;;13.50;12.40;;;;;;;13.12;81.33;96705.18;1675038;85;21429;-69
2021/05/14 06:39:52;;;;;;;11.15;10.15;;;;;;;13.13;81.38;96704.84;1675034;85;21674;-69
2021/05/14 06:42:18;;;;;;;5.70;5.10;;;;;;;13.14;81.07;96702.92;1675013;85;20978;-69
2021/05/14 06:44:44;;;;;;;6.05;3.45;;;;;;;13.13;80.97;96711.65;1675149;85;20997;-69
2021/05/14 06:47:09;;;;;;;3.10;2.02;;;;;;;13.17;81.12;96711.24;1675134;85;20863;-69
2021/05/14 06:49:35;;;;;;;4.80;4.10;;;;;;;13.23;81.04;96720.03;1675142;85;20911;-69
2021/05/14 06:52:01;;;;;;;4.15;2.95;;;;;;;13.21;80.95;96714.13;1675237;85;20968;-70
2021/05/14 06:54:27;;;;;;;4.53;2.50;;;;;;;13.16;80.65;96719.17;1675052;85;21026;-68
2021/05/14 06:56:53;;;;;;;5.30;3.17;;;;;;;13.14;81.17;96720.60;1675132;85;20863;-68
2021/05/14 06:59:19;;;;;;;4.80;2.75;;;;;;;13.19;81.06;96721.79;1675134;85;20926;-68
2021/05/14 07:01:45;;;;;;;5.83;4.90;;;;;;;13.24;80.87;96721.08;1675159;85;20902;-70
2021/05/14 07:04:11;;;;;;;4.65;2.90;;;;;;;13.29;80.58;96723.37;1675004;85;21852;-69
2021/05/14 07:06:37;;;;;;;4.47;2.60;;;;;;;13.35;80.10;96727.50;1674937;85;21108;-69
2021/05/14 07:09:04;;;;;;;3.27;1.90;;;;;;;13.26;80.19;96729.70;1675058;85;20998;-68
2021/05/14 07:11:30;;;;;;;4.15;2.70;;;;;;;13.34;80.49;96732.72;1675231;85;21062;-69
2021/05/14 07:13:56;;;;;;;3.25;2.10;;;;;;;13.34;80.31;96736.23;1675141;85;21607;-69
2021/05/14 07:16:22;;;;;;;5.87;3.12;;;;;;;13.35;80.11;96731.02;1675012;85;21297;-69
2021/05/14 07:18:48;;;;;;;4.17;2.20;;;;;;;13.35;80.49;96729.66;1675206;85;20974;-69
2021/05/14 07:21:13;;;;;;;4.78;3.45;;;;;;;13.41;80.46;96735.12;1675115;85;20908;-69
2021/05/14 07:23:41;;;;;;;3.80;2.77;;;;;;;13.38;80.19;96731.71;1675028;85;20914;-69
2021/05/14 07:26:07;;;;;;;4.85;3.75;;;;;;;13.41;80.00;96734.33;1675043;85;21063;-69
2021/05/14 07:28:33;;;;;;;8.23;6.90;;;;;;;13.39;80.03;96737.95;1675017;85;21150;-69
2021/05/14 07:30:59;;;;;;;5.65;3.83;;;;;;;13.37;79.67;96737.48;1675164;85;21017;-69
2021/05/14 07:33:25;;;;;;;5.47;4.45;;;;;;;13.35;79.78;96747.34;1675118;85;20887;-69
2021/05/14 07:35:51;;;;;;;6.58;4.30;;;;;;;13.24;80.04;96742.02;1675112;85;21572;-69
2021/05/14 07:38:17;;;;;;;9.10;5.70;;;;;;;13.25;80.21;96747.72;1675152;85;20898;-69
2021/05/14 07:40:43;;;;;;;8.48;6.95;;;;;;;13.31;80.38;96752.39;1675008;85;21123;-69
2021/05/14 07:43:09;;;;;;;6.95;5.55;;;;;;;13.33;80.38;96748.23;1675044;85;21506;-69
2021/05/14 07:45:35;;;;;;;5.78;3.98;;;;;;;13.38;80.30;96756.77;1675097;85;20934;-69
2021/05/14 07:48:02;;;;;;;9.05;5.33;;;;;;;13.48;80.27;96753.66;1675047;85;20890;-68
2021/05/14 07:50:28;;;;;;;6.10;4.00;;;;;;;13.54;79.93;96750.99;1651448;85;21510;-69
2021/05/14 07:52:54;;;;;;;5.35;4.47;;;;;;;13.61;79.57;96749.92;1674993;85;21805;-69
2021/05/14 07:55:20;;;;;;;11.28;6.05;;;;;;;13.62;79.36;96755.59;1675048;85;21026;-69
2021/05/14 07:57:46;;;;;;;8.68;5.40;;;;;;;13.60;79.28;96753.77;1651005;85;21050;-68
2021/05/14 08:00:14;;;;;;;6.03;4.00;;;;;;;13.55;79.23;96747.14;1674979;85;20879;-69
2021/05/14 08:02:39;;;;;;;5.40;3.87;;;;;;;13.53;79.26;96754.84;1674806;85;21549;-69
2021/05/14 08:05:06;;;;;;;7.62;4.22;;;;;;;13.56;79.36;96759.63;1674686;85;21248;-68
2021/05/14 08:07:32;;;;;;;10.70;7.33;;;;;;;13.59;79.42;96754.90;1672475;85;21434;-69
2021/05/14 08:09:58;;;;;;;6.42;4.50;;;;;;;13.63;79.44;96759.11;1672558;85;21079;-69
2021/05/14 08:12:24;;;;;;;7.33;5.50;;;;;;;13.65;79.51;96761.73;1672654;85;20875;-68
2021/05/14 08:14:50;;;;;;;7.25;4.92;;;;;;;13.59;79.13;96769.05;1672764;85;21021;-68
2021/05/14 08:17:16;;;;;;;12.05;7.80;;;;;;;13.57;79.21;96771.30;1672562;85;21931;-69
2021/05/14 08:19:41;;;;;;;7.78;5.95;;;;;;;13.55;79.15;96773.00;1672502;85;20930;-69
2021/05/14 08:22:07;;;;;;;7.75;6.17;;;;;;;13.56;78.98;96774.59;1672771;85;20982;-69
2021/05/14 08:24:33;;;;;;;7.37;5.47;;;;;;;13.61;78.79;96778.49;1672573;85;21485;-69
2021/05/14 08:26:59;;;;;;;13.83;6.12;;;;;;;13.60;78.92;96774.19;1672595;85;20886;-69
2021/05/14 08:29:25;;;;;;;9.45;7.37;;;;;;;13.64;78.87;96775.67;1672587;85;21075;-69
2021/05/14 08:31:52;;;;;;;9.28;6.15;;;;;;;13.67;79.03;96785.36;1672622;85;20903;-69
2021/05/14 08:34:17;;;;;;;8.10;5.83;;;;;;;13.76;78.66;96782.58;1672594;85;21541;-69
2021/05/14 08:36:43;;;;;;;12.68;7.85;;;;;;;13.79;78.40;96786.78;1672523;85;20923;-69
2021/05/14 08:39:09;;;;;;;10.35;5.42;;;;;;;13.78;78.22;96787.92;1672768;85;20923;-69
2021/05/14 08:41:35;;;;;;;10.30;6.85;;;;;;;13.74;77.94;96792.98;1645347;85;21067;-69
2021/05/14 08:44:05;;;;;;;13.40;6.70;;;;;;;13.65;77.71;96800.40;1672555;85;21054;-69
2021/05/14 08:46:31;;;;;;;11.60;9.25;;;;;;;13.52;78.26;96796.23;1645778;85;20998;-68
2021/05/14 08:48:57;;;;;;;8.23;6.05;;;;;;;13.47;78.48;96799.69;1672540;85;21053;-68
2021/05/14 08:51:27;;;;;;;7.97;6.00;;;;;;;13.49;78.64;96802.31;1672549;85;20914;-68
2021/05/14 08:54:00;;;;;;;10.32;5.87;;;;;;;13.52;78.65;96806.32;1672543;85;21052;-69
2021/05/14 08:56:23;;;;;;;9.05;6.55;;;;;;;13.55;78.78;96806.45;1645573;85;20978;-68
2021/05/14 08:58:49;;;;;;;9.03;6.50;;;;;;;13.61;78.71;96810.36;1672653;85;20979;-69
2021/05/14 09:01:15;;;;;;;9.83;7.28;;;;;;;13.65;78.84;96812.64;1672397;85;20963;-68
2021/05/14 09:04:12;;;;;;;11.68;9.55;;;;;;;13.65;78.34;96816.73;1672593;85;20962;-69
2021/05/14 09:06:40;;;;;;;11.60;9.38;;;;;;;13.65;78.29;96818.09;1675150;85;21836;-68
2021/05/14 09:09:08;;;;;;;18.57;15.87;;;;;;;13.69;78.01;96821.20;1676646;85;21494;-68
2021/05/14 09:11:44;;;;;;;13.07;8.57;;;;;;;13.83;78.05;96823.67;1676648;85;20958;-68
2021/05/14 09:14:41;;;;;;;11.00;8.45;;;;;;;13.94;78.14;96820.82;1676523;85;21308;-68
2021/05/14 09:17:12;;;;;;;11.30;6.70;;;;;;;14.02;78.16;96829.50;1676428;85;21042;-68
2021/05/14 09:19:41;;;;;;;10.40;7.33;;;;;;;13.98;77.92;96827.19;1676419;85;21112;-68
2021/05/14 09:22:20;;;;;;;6.97;5.55;;;;;;;13.98;77.99;96837.28;1676071;85;21013;-69
2021/05/14 09:24:48;;;;;;;16.15;10.90;;;;;;;13.96;77.92;96840.91;1676411;85;21528;-68
2021/05/14 09:27:38;;;;;;;10.72;7.78;;;;;;;13.95;77.85;96837.95;1652983;85;21458;-68
2021/05/14 09:30:08;;;;;;;45.45;37.90;;;;;;;13.89;77.46;96839.27;1676545;85;21042;-69
2021/05/14 09:32:35;;;;;;;16.20;10.63;;;;;;;13.86;77.46;96843.45;1676137;85;21133;-68
2021/05/14 09:35:04;;;;;;;11.20;7.50;;;;;;;13.91;77.43;96852.77;1676379;85;21030;-67
2021/05/14 09:37:30;;;;;;;14.87;6.50;;;;;;;13.96;77.54;96846.36;1676611;85;20943;-68
2021/05/14 09:40:20;;;;;;;10.95;8.20;;;;;;;14.06;77.37;96856.86;1676450;85;20906;-69
2021/05/14 09:42:49;;;;;;;9.10;7.10;;;;;;;14.09;77.63;96848.81;1676507;85;21069;-69
2021/05/14 09:45:25;;;;;;;14.20;7.25;;;;;;;14.18;77.82;96841.95;1676403;85;21186;-69
2021/05/14 09:48:26;;;;;;;16.23;8.78;;;;;;;14.27;77.78;96847.33;1675527;85;20911;-69
2021/05/14 09:50:36;;;;;;;11.33;8.15;;;;;;;14.36;77.65;96851.62;1668895;85;21390;-68
2021/05/14 09:53:18;;;;;;;12.65;7.62;;;;;;;14.41;77.21;96849.24;1676423;85;21459;-69
2021/05/14 09:55:50;;;;;;;13.48;7.72;;;;;;;14.43;77.44;96849.70;1676437;85;20950;-68
2021/05/14 09:58:24;;;;;;;14.23;8.05;;;;;;;14.81;77.11;96850.95;1676495;85;21783;-68
2021/05/14 10:00:49;;;;;;;11.43;7.78;;;;;;;15.23;76.42;96852.21;1676294;85;21030;-68
2021/05/14 10:03:17;;;;;;;20.12;8.35;;;;;;;15.98;73.66;96849.20;1676416;85;20863;-71
2021/05/14 10:05:48;;;;;;;11.55;8.43;;;;;;;16.19;72.13;96847.15;1676425;85;20954;-69
2021/05/14 10:08:18;;;;;;;35.70;16.07;;;;;;;15.96;73.71;96846.03;1673771;85;20890;-69
2021/05/14 10:10:43;;;;;;;;;;;;;;;15.95;73.97;96847.17;1677431;85;21333;-69
2021/05/14 10:13:10;;;;;;;12.65;8.18;;;;;;;15.86;73.96;96844.56;1674874;85;20274;-69
2021/05/14 10:15:37;;;;;;;15.43;10.55;;;;;;;15.78;73.51;96846.83;1675069;85;21138;-69
2021/05/14 10:18:06;;;;;;;55.92;28.90;;;;;;;15.75;71.69;96852.98;1675066;85;20895;-69
2021/05/14 10:20:32;;;;;;;;;;;;;;;15.83;73.06;96847.98;1672581;84;20967;-69
2021/05/14 10:23:00;;;;;;;17.40;12.58;;;;;;;15.86;72.91;96845.92;1660076;86;20969;-69
2021/05/14 10:25:43;;;;;;;18.82;13.80;;;;;;;15.96;72.91;96841.93;1689288;84;21717;-69
2021/05/14 10:28:20;;;;;;;33.08;20.65;;;;;;;16.15;72.28;96842.70;1689335;84;20903;-68
2021/05/14 10:31:06;;;;;;;18.45;13.55;;;;;;;16.51;71.82;96845.95;1677027;85;21100;-68
2021/05/14 10:33:41;;;;;;;17.10;12.80;;;;;;;16.67;70.16;96844.65;1665434;85;20955;-68
2021/05/14 10:36:17;;;;;;;17.10;11.50;;;;;;;16.63;69.55;96844.53;1665655;85;21231;-69
2021/05/14 10:38:43;;;;;;;34.23;22.82;;;;;;;16.69;69.73;96840.45;1677322;85;20994;-68
2021/05/14 10:41:25;;;;;;;15.40;11.25;;;;;;;16.78;69.84;96848.50;1660207;86;20935;-68
2021/05/14 10:44:08;;;;;;;17.12;12.15;;;;;;;16.44;67.43;96841.06;1677330;85;21044;-68
2021/05/14 10:46:34;;;;;;;12.53;9.50;;;;;;;16.39;69.28;96848.13;1661661;86;21011;-68
2021/05/14 10:49:13;;;;;;;13.38;10.00;;;;;;;16.36;69.41;96846.89;1677330;85;21211;-69
2021/05/14 10:51:57;;;;;;;11.12;9.33;;;;;;;16.44;69.63;96850.63;1689228;84;21202;-68
2021/05/14 10:54:44;;;;;;;8.10;6.33;;;;;;;16.60;69.08;96852.86;1677373;85;20994;-68
2021/05/14 10:57:14;;;;;;;6.75;4.08;;;;;;;16.61;68.52;96856.39;1669246;86;21486;-70
2021/05/14 10:59:43;;;;;;;5.28;3.77;;;;;;;16.38;67.54;96858.84;1669337;86;20963;-70
2021/05/14 11:02:31;;;;;;;;;;;;;;;16.23;69.15;96863.07;1676860;84;21607;-70
2021/05/14 11:04:59;;;;;;;10.32;5.10;;;;;;;16.13;69.52;96862.75;1703120;84;20194;-73
2021/05/14 11:07:42;;;;;;;5.95;4.65;;;;;;;15.95;69.34;96862.20;1659522;84;20959;-70
2021/05/14 11:10:16;;;;;;;31.90;8.55;;;;;;;16.02;69.99;96866.52;1650852;87;21064;-69
2021/05/14 11:12:45;;;;;;;6.10;4.53;;;;;;;16.27;70.00;96870.03;1630239;87;21511;-65
2021/05/14 11:15:33;;;;;;;10.72;6.67;;;;;;;16.62;69.83;96868.34;1652835;85;21711;-69
2021/05/14 11:18:17;;;;;;;11.85;8.95;;;;;;;17.55;68.83;96866.80;1678662;85;21028;-72
2021/05/14 11:20:46;;;;;;;17.23;11.65;;;;;;;20.48;62.56;96859.13;1672116;85;20952;-71
2021/05/14 11:23:38;;;;;;;12.00;7.33;;;;;;;19.53;63.84;96866.59;1677520;85;20978;-76
2021/05/14 11:26:06;;;;;;;16.50;9.33;;;;;;;19.03;64.43;96878.02;1676518;85;21003;-75
2021/05/14 11:28:46;;;;;;;18.75;11.40;;;;;;;18.54;64.20;96877.98;1674468;84;21497;-77
2021/05/14 11:31:21;;;;;;;16.25;11.95;;;;;;;18.11;62.70;96873.45;1676199;85;21509;-76
2021/05/14 11:33:53;;;;;;;15.23;10.68;;;;;;;17.68;60.81;96879.82;1653231;85;21089;-78
2021/05/14 11:36:23;;;;;;;20.75;13.30;;;;;;;17.54;61.99;96872.63;1676170;85;20977;-76
2021/05/14 11:38:56;;;;;;;17.48;13.45;;;;;;;16.87;63.22;96877.30;1676306;85;21025;-77
2021/05/14 11:41:29;;;;;;;16.80;12.70;;;;;;;16.39;65.09;96880.14;1676945;85;21144;-77